createdAt,value
2023-03-17T00:01:08.334Z,2.25
2023-03-17T00:04:12.655Z,2.23
2023-03-17T00:07:17.323Z,2.23
2023-03-17T00:10:23.841Z,2.33
2023-03-17T00:13:27.224Z,2.59
2023-03-17T00:16:34.986Z,2.48
2023-03-17T00:19:37.722Z,2.69
2023-03-17T00:22:41.030Z,2.65
2023-03-17T00:25:45.428Z,2.60
2023-03-17T00:28:48.537Z,2.33
2023-03-17T00:31:51.394Z,2.56
2023-03-17T00:34:58.511Z,2.58
2023-03-17T00:38:01.174Z,2.47
2023-03-17T00:41:04.585Z,2.37
2023-03-17T00:44:07.163Z,2.52
2023-03-17T00:47:11.987Z,2.69
2023-03-17T00:50:18.360Z,2.65
2023-03-17T00:53:23.986Z,2.47
2023-03-17T00:56:27.106Z,2.65
2023-03-17T00:59:37.348Z,2.53
2023-03-17T01:02:39.949Z,2.22
2023-03-17T01:05:42.738Z,2.55
2023-03-17T01:08:45.288Z,2.43
2023-03-17T01:11:49.268Z,2.58
2023-03-17T01:14:58.165Z,2.47
2023-03-17T01:18:02.892Z,2.44
2023-03-17T01:21:06.752Z,2.35
2023-03-17T01:24:09.762Z,2.48
2023-03-17T01:27:12.691Z,2.34
2023-03-17T01:30:26.218Z,1.71
2023-03-17T01:33:29.214Z,1.03
2023-03-17T01:36:31.816Z,0.46
2023-03-17T01:39:34.432Z,0.40
2023-03-17T01:42:37.389Z,0.16
2023-03-17T01:46:36.879Z,0.23
2023-03-17T01:49:40.096Z,0.05
2023-03-17T01:52:42.783Z,0.13
2023-03-17T01:55:48.405Z,-0.41
2023-03-17T01:58:54.148Z,-0.36
2023-03-17T02:02:03.444Z,-0.44
2023-03-17T02:05:09.986Z,-0.34
2023-03-17T02:08:14.945Z,-0.45
2023-03-17T02:11:17.898Z,-0.71
2023-03-17T02:14:20.572Z,-0.77
2023-03-17T02:17:25.803Z,-0.99
2023-03-17T02:20:28.573Z,-0.89
2023-03-17T02:23:31.896Z,-0.90
2023-03-17T02:26:36.808Z,-0.71
2023-03-17T02:29:40.540Z,-0.99
2023-03-17T02:32:44.271Z,-0.81
2023-03-17T02:35:46.986Z,-0.78
2023-03-17T02:38:52.944Z,-0.95
2023-03-17T02:41:56.113Z,-0.89
2023-03-17T02:44:58.830Z,-0.92
2023-03-17T02:48:01.611Z,-1.01
2023-03-17T02:51:04.613Z,-0.80
2023-03-17T02:54:07.407Z,-0.87
2023-03-17T02:57:10.031Z,-1.09
2023-03-17T03:00:14.371Z,-0.78
2023-03-17T03:03:18.019Z,-0.94
2023-03-17T03:06:20.951Z,-0.97
2023-03-17T03:09:24.302Z,-0.78
2023-03-17T03:12:27.059Z,-1.08
2023-03-17T03:15:29.674Z,-1.21
2023-03-17T03:18:33.032Z,-1.03
2023-03-17T03:21:36.791Z,-1.11
2023-03-17T03:24:39.368Z,-1.16
2023-03-17T03:27:41.951Z,-1.42
2023-03-17T03:30:46.968Z,-1.47
2023-03-17T03:33:49.679Z,-1.25
2023-03-17T03:36:52.234Z,-1.42
2023-03-17T03:39:54.882Z,-1.47
2023-03-17T03:42:57.490Z,-1.48
2023-03-17T03:46:00.252Z,-1.44
2023-03-17T03:49:02.898Z,-1.71
2023-03-17T03:52:06.730Z,-1.69
2023-03-17T03:55:09.681Z,-1.55
2023-03-17T03:58:12.399Z,-1.59
2023-03-17T04:01:15.066Z,-1.65
2023-03-17T04:04:17.906Z,-1.75
2023-03-17T04:07:21.506Z,-1.82
2023-03-17T04:10:24.276Z,-1.71
2023-03-17T04:13:27.241Z,-1.69
2023-03-17T04:16:29.994Z,-1.63
2023-03-17T04:19:32.650Z,-1.86
2023-03-17T04:22:35.311Z,-1.62
2023-03-17T04:25:38.171Z,-1.45
2023-03-17T04:28:41.010Z,-1.95
2023-03-17T04:31:43.740Z,-1.82
2023-03-17T04:34:46.378Z,-2.19
2023-03-17T04:37:49.895Z,-1.91
2023-03-17T04:40:53.176Z,-1.94
2023-03-17T04:43:55.910Z,-2.17
2023-03-17T04:46:58.576Z,-2.08
2023-03-17T04:50:01.661Z,-2.20
2023-03-17T04:53:04.334Z,-1.82
2023-03-17T04:56:07.191Z,-1.85
2023-03-17T04:59:10.284Z,-1.89
2023-03-17T05:02:12.985Z,-2.06
2023-03-17T05:05:15.823Z,-1.95
2023-03-17T05:08:18.707Z,-1.88
2023-03-17T05:11:21.337Z,-1.82
2023-03-17T05:14:24.013Z,-1.86
2023-03-17T05:17:26.596Z,-1.11
2023-03-17T05:20:29.437Z,-0.35
2023-03-17T05:23:32.781Z,0.38
2023-03-17T05:26:35.538Z,1.07
2023-03-17T05:29:38.303Z,1.18
2023-03-17T05:32:41.011Z,0.95
2023-03-17T05:35:43.829Z,1.35
2023-03-17T05:38:46.751Z,2.67
2023-03-17T05:41:50.520Z,3.57
2023-03-17T05:44:53.522Z,4.78
2023-03-17T05:47:56.876Z,5.21
2023-03-17T05:51:00.319Z,5.99
2023-03-17T05:54:03.027Z,6.59
2023-03-17T05:57:05.635Z,7.03
2023-03-17T06:00:09.476Z,7.58
2023-03-17T06:03:13.966Z,8.12
2023-03-17T06:06:16.631Z,8.90
2023-03-17T06:09:19.380Z,8.72
2023-03-17T06:12:22.330Z,8.97
2023-03-17T06:15:25.784Z,9.16
2023-03-17T06:18:28.469Z,8.81
2023-03-17T06:21:31.355Z,9.10
2023-03-17T06:24:34.218Z,9.41
2023-03-17T06:27:38.034Z,9.93
2023-03-17T06:30:41.065Z,10.14
2023-03-17T06:33:43.963Z,10.56
2023-03-17T06:36:46.794Z,10.56
2023-03-17T06:39:49.687Z,11.04
2023-03-17T06:42:53.305Z,11.67
2023-03-17T06:45:55.927Z,12.15
2023-03-17T06:48:59.423Z,11.50
2023-03-17T06:52:02.056Z,12.75
2023-03-17T06:55:06.365Z,13.72
2023-03-17T06:58:10.715Z,14.24
2023-03-17T07:01:14.659Z,14.28
2023-03-17T07:04:17.639Z,14.52
2023-03-17T07:07:21.230Z,14.86
2023-03-17T07:10:24.906Z,15.16
2023-03-17T07:13:28.123Z,14.90
2023-03-17T07:16:30.959Z,14.87
2023-03-17T07:19:35.152Z,15.15
2023-03-17T07:22:38.125Z,15.84
2023-03-17T07:25:43.666Z,16.08
2023-03-17T07:28:46.729Z,15.97
2023-03-17T07:31:49.991Z,16.21
2023-03-17T07:34:53.087Z,16.11
2023-03-17T07:37:55.735Z,16.71
2023-03-17T07:40:58.341Z,16.65
2023-03-17T07:44:01.902Z,17.08
2023-03-17T07:47:04.593Z,17.42
2023-03-17T07:50:07.856Z,17.05
2023-03-17T07:53:10.995Z,17.41
2023-03-17T07:56:14.346Z,17.59
2023-03-17T07:59:17.562Z,18.11
2023-03-17T08:02:21.266Z,18.50
2023-03-17T08:05:24.259Z,16.73
2023-03-17T08:08:28.271Z,17.66
2023-03-17T08:11:31.176Z,18.27
2023-03-17T08:14:33.895Z,18.72
2023-03-17T08:17:37.371Z,18.79
2023-03-17T08:20:40.828Z,19.07
2023-03-17T08:23:43.917Z,19.21
2023-03-17T08:26:49.735Z,19.43
2023-03-17T08:29:52.367Z,19.07
2023-03-17T08:32:55.081Z,17.53
2023-03-17T08:35:57.776Z,18.13
2023-03-17T08:39:01.215Z,18.77
2023-03-17T08:42:04.830Z,19.28
2023-03-17T08:45:07.853Z,18.82
2023-03-17T08:48:10.495Z,18.85
2023-03-17T08:51:14.091Z,18.73
2023-03-17T08:54:18.031Z,18.93
2023-03-17T08:57:20.880Z,19.50
2023-03-17T09:00:23.720Z,18.37
2023-03-17T09:03:27.119Z,16.90
2023-03-17T09:06:30.344Z,18.38
2023-03-17T09:09:36.656Z,18.94
2023-03-17T09:12:39.715Z,19.33
2023-03-17T09:15:42.396Z,18.50
2023-03-17T09:18:46.750Z,17.42
2023-03-17T09:21:50.402Z,17.49
2023-03-17T09:24:53.386Z,17.52
2023-03-17T09:27:55.976Z,17.56
2023-03-17T09:31:03.604Z,19.03
2023-03-17T09:34:06.461Z,19.51
2023-03-17T09:37:10.008Z,19.53
2023-03-17T09:40:17.258Z,18.84
2023-03-17T09:43:26.058Z,18.84
2023-03-17T09:46:46.887Z,18.55
2023-03-17T09:49:52.496Z,19.16
2023-03-17T09:52:57.387Z,18.79
2023-03-17T09:56:05.695Z,17.64
2023-03-17T09:59:36.979Z,19.53
2023-03-17T10:02:39.647Z,20.24
2023-03-17T10:05:42.348Z,20.64
2023-03-17T10:08:54.914Z,20.82
2023-03-17T10:12:18.631Z,21.18
2023-03-17T10:15:27.945Z,20.98
2023-03-17T10:18:39.299Z,20.01
2023-03-17T10:21:50.361Z,19.75
2023-03-17T10:24:57.859Z,19.52
2023-03-17T10:28:09.004Z,19.38
2023-03-17T10:31:17.677Z,18.82
2023-03-17T10:34:27.617Z,17.84
2023-03-17T10:37:36.659Z,19.64
2023-03-17T10:40:39.755Z,18.26
2023-03-17T10:43:47.325Z,18.75
2023-03-17T10:46:55.576Z,17.87
2023-03-17T10:50:03.734Z,18.48
2023-03-17T10:53:09.432Z,19.09
2023-03-17T10:56:23.593Z,19.12
2023-03-17T11:02:45.897Z,20.14
2023-03-17T11:05:55.599Z,20.32
2023-03-17T11:09:07.617Z,19.98
2023-03-17T11:12:34.216Z,21.12
2023-03-17T11:15:42.436Z,19.78
2023-03-17T11:18:47.322Z,20.33
2023-03-17T11:22:10.087Z,20.84
2023-03-17T11:25:17.449Z,20.31
2023-03-17T11:28:25.084Z,21.30
2023-03-17T11:31:34.956Z,20.88
2023-03-17T11:34:56.875Z,20.34
2023-03-17T11:38:22.399Z,20.31
2023-03-17T11:41:27.858Z,19.53
2023-03-17T11:44:57.837Z,19.88
2023-03-17T11:48:15.212Z,19.51
2023-03-17T11:51:27.656Z,20.04
2023-03-17T11:54:33.452Z,20.03
2023-03-17T11:57:41.226Z,19.07
2023-03-17T12:01:09.122Z,18.98
2023-03-17T12:04:19.047Z,19.57
2023-03-17T12:07:29.098Z,19.33
2023-03-17T12:10:39.071Z,19.00
2023-03-17T12:13:46.763Z,18.49
2023-03-17T12:17:00.803Z,17.93
2023-03-17T12:20:07.156Z,18.48
2023-03-17T12:23:32.246Z,18.33
2023-03-17T12:26:44.500Z,19.30
2023-03-17T12:29:52.637Z,19.16
2023-03-17T12:33:16.013Z,18.94
2023-03-17T12:36:19.089Z,18.80
2023-03-17T12:39:28.293Z,17.37
2023-03-17T12:42:38.630Z,16.12
2023-03-17T12:45:50.855Z,15.75
2023-03-17T12:48:56.479Z,15.82
2023-03-17T12:52:20.158Z,15.72
2023-03-17T12:55:27.057Z,15.81
2023-03-17T12:58:38.980Z,16.35
2023-03-17T13:01:46.032Z,15.66
2023-03-17T13:05:03.851Z,15.65
2023-03-17T13:08:11.032Z,16.42
2023-03-17T13:11:14.805Z,17.35
2023-03-17T13:14:43.963Z,16.96
2023-03-17T13:17:46.899Z,17.02
2023-03-17T13:21:10.439Z,16.72
2023-03-17T13:24:15.877Z,17.22
2023-03-17T13:27:30.972Z,17.41
2023-03-17T13:30:36.541Z,17.41
2023-03-17T13:33:50.155Z,17.20
2023-03-17T13:37:13.963Z,17.20
2023-03-17T13:40:25.483Z,16.79
2023-03-17T13:43:52.743Z,16.64
2023-03-17T13:46:55.552Z,16.64
2023-03-17T13:50:04.042Z,16.11
2023-03-17T13:53:11.819Z,15.89
2023-03-17T13:56:21.894Z,15.73
2023-03-17T13:59:39.381Z,16.06
2023-03-17T14:02:44.783Z,15.95
2023-03-17T14:05:52.817Z,16.07
2023-03-17T14:09:00.829Z,16.04
2023-03-17T14:12:17.741Z,15.89
2023-03-17T14:15:48.568Z,15.68
2023-03-17T14:19:11.987Z,15.17
2023-03-17T14:22:23.870Z,15.50
2023-03-17T14:25:37.746Z,15.15
2023-03-17T14:28:40.650Z,14.70
2023-03-17T14:31:48.574Z,14.59
2023-03-17T14:34:56.379Z,13.44
2023-03-17T14:38:00.275Z,13.86
2023-03-17T14:41:27.144Z,13.61
2023-03-17T14:44:43.745Z,12.85
2023-03-17T14:47:47.052Z,13.65
2023-03-17T14:50:55.589Z,14.04
2023-03-17T14:54:01.682Z,14.04
2023-03-17T14:57:14.793Z,13.55
2023-03-17T15:00:49.810Z,13.35
2023-03-17T15:04:24.001Z,13.65
2023-03-17T15:07:36.689Z,13.11
2023-03-17T15:10:43.507Z,13.38
2023-03-17T15:13:46.498Z,13.30
2023-03-17T15:16:52.491Z,13.30
2023-03-17T15:19:58.202Z,12.90
2023-03-17T15:23:25.026Z,12.16
2023-03-17T15:26:34.342Z,11.79
2023-03-17T15:29:36.925Z,11.25
2023-03-17T15:32:39.932Z,11.42
2023-03-17T15:35:42.506Z,10.97
2023-03-17T15:38:45.319Z,10.79
2023-03-17T15:41:47.880Z,10.61
2023-03-17T15:44:51.577Z,10.39
2023-03-17T15:47:55.436Z,10.53
2023-03-17T15:51:00.269Z,10.55
2023-03-17T15:54:03.039Z,10.38
2023-03-17T15:57:06.251Z,10.31
2023-03-17T16:00:10.462Z,10.17
2023-03-17T16:03:32.864Z,9.85
2023-03-17T16:06:35.786Z,9.88
2023-03-17T16:09:38.376Z,9.86
2023-03-17T16:12:41.771Z,9.62
2023-03-17T16:15:50.958Z,9.45
2023-03-17T16:18:53.788Z,9.23
2023-03-17T16:21:57.510Z,9.19
2023-03-17T16:25:00.111Z,9.09
2023-03-17T16:28:14.246Z,8.84
2023-03-17T16:31:20.972Z,8.69
2023-03-17T16:34:24.261Z,8.44
2023-03-17T16:37:26.848Z,8.19
2023-03-17T16:40:37.947Z,8.08
2023-03-17T16:43:44.248Z,8.03
2023-03-17T16:46:47.368Z,7.86
2023-03-17T16:49:50.137Z,7.65
2023-03-17T16:52:52.839Z,7.47
2023-03-17T16:55:55.752Z,7.45
2023-03-17T16:58:58.345Z,7.37
2023-03-17T17:02:02.400Z,7.37
2023-03-17T17:05:12.905Z,7.11
2023-03-17T17:08:15.911Z,7.22
2023-03-17T17:11:19.503Z,7.16
2023-03-17T17:14:22.055Z,6.88
2023-03-17T17:17:24.747Z,6.91
2023-03-17T17:20:31.030Z,6.62
2023-03-17T17:23:34.311Z,6.62
2023-03-17T17:26:36.874Z,6.70
2023-03-17T17:29:39.886Z,6.61
2023-03-17T17:32:42.862Z,6.64
2023-03-17T17:35:46.779Z,6.65
2023-03-17T17:38:51.375Z,6.56
2023-03-17T17:41:54.027Z,6.34
2023-03-17T17:44:56.782Z,6.13
2023-03-17T17:47:59.524Z,6.10
2023-03-17T17:51:02.457Z,5.86
2023-03-17T17:54:06.363Z,5.63
2023-03-17T17:57:11.761Z,5.66
2023-03-17T18:00:17.274Z,5.57
2023-03-17T18:03:24.640Z,5.34
2023-03-17T18:06:27.259Z,5.19
2023-03-17T18:09:32.060Z,5.28
2023-03-17T18:12:35.563Z,5.02
2023-03-17T18:15:38.705Z,4.94
2023-03-17T18:18:43.378Z,5.05
2023-03-17T18:21:47.157Z,4.90
2023-03-17T18:24:50.244Z,4.63
2023-03-17T18:27:55.065Z,4.79
2023-03-17T18:31:07.127Z,4.48
2023-03-17T18:34:34.404Z,4.64
2023-03-17T18:37:37.514Z,4.24
2023-03-17T18:40:41.928Z,4.27
2023-03-17T18:43:45.081Z,4.24
2023-03-17T18:46:48.542Z,4.15
2023-03-17T18:49:52.401Z,3.83
2023-03-17T18:52:56.029Z,3.96
2023-03-17T18:55:59.436Z,3.95
2023-03-17T18:59:02.327Z,3.72
2023-03-17T19:02:05.295Z,3.91
2023-03-17T19:05:08.858Z,3.88
2023-03-17T19:08:15.284Z,3.91
2023-03-17T19:11:20.172Z,3.83
2023-03-17T19:14:22.741Z,3.56
2023-03-17T19:17:25.600Z,3.35
2023-03-17T19:20:28.598Z,2.80
2023-03-17T19:23:32.302Z,2.90
2023-03-17T19:26:35.552Z,3.02
2023-03-17T19:29:38.451Z,3.08
2023-03-17T19:32:41.335Z,3.00
2023-03-17T19:35:44.642Z,2.94
2023-03-17T19:38:47.511Z,2.84
2023-03-17T19:41:55.058Z,2.49
2023-03-17T19:44:57.994Z,2.58
2023-03-17T19:48:01.086Z,2.46
2023-03-17T19:51:05.067Z,2.43
2023-03-17T19:54:09.782Z,2.39
2023-03-17T19:57:14.118Z,2.44
2023-03-17T20:00:18.400Z,2.29
2023-03-17T20:03:23.130Z,2.32
2023-03-17T20:06:27.341Z,1.82
2023-03-17T20:09:31.992Z,1.49
2023-03-17T20:12:38.113Z,1.55
2023-03-17T20:15:42.110Z,1.60
2023-03-17T20:18:45.354Z,1.27
2023-03-17T20:21:48.485Z,1.59
2023-03-17T20:24:51.690Z,1.48
2023-03-17T20:27:55.167Z,1.18
2023-03-17T20:31:00.093Z,1.22
2023-03-17T20:34:03.324Z,1.55
2023-03-17T20:37:05.991Z,1.42
2023-03-17T20:40:10.786Z,1.17
2023-03-17T20:43:13.464Z,1.35
2023-03-17T20:46:24.745Z,1.51
2023-03-17T20:49:27.903Z,1.47
2023-03-17T20:52:30.839Z,1.32
2023-03-17T20:55:33.702Z,1.26
2023-03-17T20:58:36.619Z,1.25
2023-03-17T21:01:40.379Z,1.46
2023-03-17T21:04:46.829Z,0.98
2023-03-17T21:07:50.145Z,0.91
2023-03-17T21:10:53.607Z,0.83
2023-03-17T21:13:56.834Z,0.82
2023-03-17T21:17:01.424Z,0.89
2023-03-17T21:20:06.428Z,0.90
2023-03-17T21:23:09.468Z,0.88
2023-03-17T21:26:12.719Z,0.97
2023-03-17T21:29:15.408Z,0.82
2023-03-17T21:32:18.390Z,0.90
2023-03-17T21:35:22.092Z,0.75
2023-03-17T21:38:27.529Z,0.36
2023-03-17T21:41:33.877Z,0.32
2023-03-17T21:44:37.282Z,0.27
2023-03-17T21:47:41.320Z,0.37
2023-03-17T21:50:44.420Z,0.33
2023-03-17T21:53:48.038Z,0.32
2023-03-17T21:56:51.504Z,0.10
2023-03-17T21:59:54.048Z,-0.14
2023-03-17T22:02:56.807Z,-0.11
2023-03-17T22:05:59.424Z,0.09
2023-03-17T22:09:04.515Z,-0.06
2023-03-17T22:12:07.987Z,-0.17
2023-03-17T22:15:11.042Z,0.02
2023-03-17T22:18:14.176Z,-0.03
2023-03-17T22:21:16.756Z,0.07
2023-03-17T22:24:21.821Z,-0.09
2023-03-17T22:27:24.530Z,0.03
2023-03-17T22:30:27.183Z,-0.01
2023-03-17T22:33:30.166Z,0.05
2023-03-17T22:36:33.354Z,-0.13
2023-03-17T22:39:36.006Z,-0.25
2023-03-17T22:42:38.819Z,-0.58
2023-03-17T22:45:41.445Z,-0.33
2023-03-17T22:48:46.180Z,-0.25
2023-03-17T22:51:50.169Z,-0.49
2023-03-17T22:54:52.742Z,-0.40
2023-03-17T22:57:55.410Z,-0.29
2023-03-17T23:00:58.090Z,-0.46
2023-03-17T23:04:01.224Z,-0.21
2023-03-17T23:07:04.113Z,-0.29
2023-03-17T23:10:10.759Z,-0.43
2023-03-17T23:13:13.743Z,-0.63
2023-03-17T23:16:17.289Z,-0.73
2023-03-17T23:19:20.675Z,-0.58
2023-03-17T23:22:23.629Z,-0.64
2023-03-17T23:25:26.645Z,-0.63
2023-03-17T23:28:29.227Z,-0.59
2023-03-17T23:31:32.250Z,-1.01
2023-03-17T23:34:34.904Z,-0.81
2023-03-17T23:37:37.490Z,-1.20
2023-03-17T23:40:40.160Z,-0.78
2023-03-17T23:43:42.985Z,-0.93
2023-03-17T23:46:46.505Z,-0.79
2023-03-17T23:49:49.260Z,-1.13
2023-03-17T23:52:52.202Z,-0.99
2023-03-17T23:55:55.012Z,-1.24
2023-03-17T23:58:57.910Z,-1.03
